Time;durP1;ratioP1;P1;durP2;ratioP2;P2;SDS_P1;SDS_P2;PMS_P1;PMS_P2;Temp;Humidity;BMP_temperature;BMP_pressure;BME280_temperature;BME280_humidity;BME280_pressure;Samples;Min_cycle;Max_cycle;Signal;HPM_P1;HPM_P2
2022/09/16 00:02:00;;;;;;;2.25;0.50;;;14.40;99.90;;;;;;5084775;28;20048;-89
2022/09/16 00:04:25;;;;;;;6.00;0.77;;;14.40;99.90;;;;;;5096264;28;20019;-87
2022/09/16 00:06:52;;;;;;;1.38;0.50;;;14.50;99.90;;;;;;5084700;28;20021;-87
2022/09/16 00:09:17;;;;;;;1.73;0.57;;;14.40;99.90;;;;;;5082829;28;20032;-89
2022/09/16 00:11:43;;;;;;;2.63;0.68;;;14.40;99.90;;;;;;5075205;28;20037;-89
2022/09/16 00:14:09;;;;;;;2.22;0.70;;;14.40;99.90;;;;;;5093488;28;20047;-90
2022/09/16 00:16:34;;;;;;;2.30;0.70;;;14.40;99.90;;;;;;5079452;28;20023;-89
2022/09/16 00:19:00;;;;;;;1.80;0.80;;;14.40;99.90;;;;;;5060797;28;20017;-89
2022/09/16 00:21:27;;;;;;;1.85;0.70;;;14.40;99.90;;;;;;5073757;28;20024;-89
2022/09/16 00:23:55;;;;;;;0.70;0.50;;;14.40;99.90;;;;;;5055602;28;20021;-92
2022/09/16 00:26:20;;;;;;;3.00;0.77;;;14.40;99.90;;;;;;5077469;28;20122;-88
2022/09/16 00:28:49;;;;;;;4.53;0.80;;;14.40;99.90;;;;;;5068501;28;20098;-89
2022/09/16 00:31:15;;;;;;;2.85;1.02;;;14.30;99.90;;;;;;5073274;28;20036;-87
2022/09/16 00:33:41;;;;;;;1.58;0.90;;;14.40;99.90;;;;;;5072180;28;20686;-89
2022/09/16 00:36:13;;;;;;;1.10;0.60;;;14.40;99.90;;;;;;5068076;28;20437;-90
2022/09/16 00:38:39;;;;;;;1.75;0.68;;;14.40;99.90;;;;;;5060995;28;20039;-88
2022/09/16 00:41:05;;;;;;;2.05;0.60;;;14.40;99.90;;;;;;5068286;28;20039;-87
2022/09/16 00:44:04;;;;;;;3.20;1.25;;;14.50;99.90;;;;;;5076112;28;20060;-89
2022/09/16 00:46:47;;;;;;;3.58;0.65;;;14.40;99.90;;;;;;5053225;28;20039;-89
2022/09/16 00:49:26;;;;;;;2.00;0.50;;;14.40;99.90;;;;;;5068779;28;20035;-90
2022/09/16 00:51:59;;;;;;;3.88;0.60;;;14.40;99.90;;;;;;5071051;28;20107;-91
2022/09/16 00:54:25;;;;;;;1.95;0.60;;;14.40;99.90;;;;;;5065516;28;20029;-90
2022/09/16 00:56:54;;;;;;;2.30;0.70;;;14.40;99.90;;;;;;5064506;28;20075;-90
2022/09/16 00:59:44;;;;;;;2.38;0.52;;;14.40;99.90;;;;;;5067360;28;20020;-89
2022/09/16 01:02:14;;;;;;;2.95;0.68;;;14.50;99.90;;;;;;5060662;28;20124;-89
2022/09/16 01:04:52;;;;;;;1.92;0.60;;;14.40;99.90;;;;;;5069069;28;20040;-89
2022/09/16 01:07:25;;;;;;;5.88;0.77;;;14.40;99.90;;;;;;5067716;28;20474;-89
2022/09/16 01:09:50;;;;;;;2.65;0.57;;;14.40;99.90;;;;;;5057348;28;20028;-89
2022/09/16 01:12:17;;;;;;;1.27;0.60;;;14.50;99.90;;;;;;5067028;28;20473;-89
2022/09/16 01:14:55;;;;;;;1.10;0.52;;;14.40;99.90;;;;;;5065073;28;20028;-88
2022/09/16 01:17:42;;;;;;;2.95;0.60;;;14.40;99.90;;;;;;5067926;28;20035;-87
2022/09/16 01:20:26;;;;;;;4.60;1.00;;;14.40;99.90;;;;;;5080273;28;20028;-87
2022/09/16 01:23:31;;;;;;;2.55;0.60;;;14.40;99.90;;;;;;5064478;28;20029;-88
2022/09/16 01:26:28;;;;;;;3.92;1.23;;;14.40;99.90;;;;;;5061276;28;20021;-85
2022/09/16 01:29:25;;;;;;;1.65;0.50;;;14.40;99.90;;;;;;5068451;28;20028;-87
2022/09/16 01:32:26;;;;;;;3.90;0.57;;;14.40;99.90;;;;;;5065832;28;20037;-87
2022/09/16 01:35:13;;;;;;;0.70;0.47;;;14.40;99.90;;;;;;5073300;28;20116;-87
2022/09/16 01:38:01;;;;;;;3.40;0.80;;;14.30;99.90;;;;;;5070615;28;20025;-87
2022/09/16 01:40:44;;;;;;;4.00;0.80;;;14.30;99.90;;;;;;5068152;28;20025;-88
2022/09/16 01:43:24;;;;;;;0.77;0.50;;;14.30;99.90;;;;;;5067807;28;20119;-89
2022/09/16 01:45:56;;;;;;;1.48;0.68;;;14.30;99.90;;;;;;5064221;28;20024;-88
2022/09/16 01:48:27;;;;;;;4.18;1.00;;;14.30;99.90;;;;;;5077262;28;20031;-87
2022/09/16 01:51:13;;;;;;;3.25;0.80;;;14.30;99.90;;;;;;5082228;28;20024;-87
2022/09/16 01:53:59;;;;;;;1.73;0.60;;;14.30;99.90;;;;;;5083739;28;20036;-89
2022/09/16 01:56:45;;;;;;;2.63;0.65;;;14.30;99.90;;;;;;5077438;28;20025;-88
2022/09/16 01:59:17;;;;;;;5.57;0.77;;;14.20;99.90;;;;;;5091058;28;20108;-86
2022/09/16 02:02:03;;;;;;;1.67;0.60;;;14.20;99.90;;;;;;5087226;28;20027;-86
2022/09/16 02:04:34;;;;;;;2.75;0.73;;;14.20;99.90;;;;;;5094659;28;20040;-86
2022/09/16 02:07:03;;;;;;;1.83;0.47;;;14.20;99.90;;;;;;5089343;28;20023;-85
2022/09/16 02:09:33;;;;;;;2.75;0.68;;;14.10;99.90;;;;;;5095420;28;20043;-88
2022/09/16 02:12:04;;;;;;;3.88;0.75;;;14.10;99.90;;;;;;5089280;28;20033;-88
2022/09/16 02:14:34;;;;;;;3.70;0.50;;;14.10;99.90;;;;;;5074621;28;20032;-86
2022/09/16 02:17:01;;;;;;;1.52;0.93;;;14.10;99.90;;;;;;5092523;28;20032;-88
2022/09/16 02:19:35;;;;;;;1.92;0.60;;;14.00;99.90;;;;;;5087870;28;20027;-87
2022/09/16 02:22:07;;;;;;;2.22;0.70;;;14.00;99.90;;;;;;5079064;28;20027;-89
2022/09/16 02:24:34;;;;;;;1.80;0.73;;;14.00;99.90;;;;;;5071495;28;20031;-88
2022/09/16 02:27:03;;;;;;;2.13;0.70;;;13.90;99.90;;;;;;5073955;28;20503;-87
2022/09/16 02:29:40;;;;;;;2.78;1.23;;;13.90;99.90;;;;;;5067346;28;20114;-88
2022/09/16 02:32:08;;;;;;;3.47;0.50;;;13.90;99.90;;;;;;5064592;28;20029;-89
2022/09/16 02:34:40;;;;;;;2.67;0.80;;;13.90;99.90;;;;;;5070894;28;20029;-88
2022/09/16 02:37:17;;;;;;;3.53;0.80;;;13.90;99.90;;;;;;5073362;28;20025;-89
2022/09/16 02:39:47;;;;;;;3.80;0.93;;;13.90;99.90;;;;;;5068449;28;20028;-90
2022/09/16 02:42:12;;;;;;;6.85;1.75;;;13.90;99.90;;;;;;5073995;28;20033;-87
2022/09/16 02:44:38;;;;;;;1.48;0.60;;;13.80;99.90;;;;;;5079035;28;20084;-87
2022/09/16 02:47:29;;;;;;;2.63;0.75;;;13.80;99.90;;;;;;5070079;28;20020;-90
2022/09/16 02:49:54;;;;;;;3.22;0.70;;;13.70;99.90;;;;;;5080019;28;20096;-92
2022/09/16 02:52:28;;;;;;;4.10;0.80;;;13.70;99.90;;;;;;5068730;28;20108;-88
2022/09/16 02:55:02;;;;;;;2.08;0.55;;;13.70;99.90;;;;;;5073260;28;20028;-88
2022/09/16 02:57:28;;;;;;;5.22;0.70;;;13.70;99.90;;;;;;5053456;28;20037;-87
2022/09/16 02:59:54;;;;;;;1.17;0.50;;;13.70;99.90;;;;;;5059127;28;20025;-87
2022/09/16 03:02:20;;;;;;;3.30;0.80;;;13.70;99.90;;;;;;5072119;28;20059;-87
2022/09/16 03:04:45;;;;;;;2.65;0.60;;;13.60;99.90;;;;;;5070946;28;20036;-87
2022/09/16 03:07:12;;;;;;;5.68;0.80;;;13.60;99.90;;;;;;5071398;28;20037;-89
2022/09/16 03:09:42;;;;;;;1.50;0.68;;;13.50;99.90;;;;;;5062848;28;20025;-87
2022/09/16 03:12:21;;;;;;;2.22;0.60;;;13.50;99.90;;;;;;5071417;28;20031;-88
2022/09/16 03:14:59;;;;;;;3.08;0.82;;;13.60;99.90;;;;;;5071224;28;20048;-89
2022/09/16 03:17:36;;;;;;;3.28;0.65;;;13.60;99.90;;;;;;5069004;28;20477;-88
2022/09/16 03:20:24;;;;;;;1.20;0.40;;;13.60;99.90;;;;;;5070494;28;20020;-87
2022/09/16 03:23:13;;;;;;;1.83;0.60;;;13.60;99.90;;;;;;5071038;28;20039;-89
2022/09/16 03:25:59;;;;;;;2.78;0.75;;;13.60;99.90;;;;;;5067372;28;20023;-88
2022/09/16 03:28:36;;;;;;;4.97;0.98;;;13.60;99.90;;;;;;5070138;28;20695;-88
2022/09/16 03:31:27;;;;;;;1.65;0.50;;;13.60;99.90;;;;;;5069737;28;20025;-88
2022/09/16 03:34:08;;;;;;;2.30;0.60;;;13.50;99.90;;;;;;5069821;28;20036;-86
2022/09/16 03:36:41;;;;;;;5.25;0.70;;;13.50;99.90;;;;;;5059020;28;20095;-88
2022/09/16 03:39:08;;;;;;;4.57;0.80;;;13.50;99.90;;;;;;5060500;28;20025;-87
2022/09/16 03:41:35;;;;;;;2.00;0.88;;;13.50;99.90;;;;;;5069096;28;20020;-89
2022/09/16 03:44:00;;;;;;;2.05;0.70;;;13.40;99.90;;;;;;5070388;28;20141;-88
2022/09/16 03:46:27;;;;;;;4.80;1.02;;;13.40;99.90;;;;;;5070379;28;20021;-89
2022/09/16 03:48:54;;;;;;;2.92;0.50;;;13.50;99.90;;;;;;5073787;28;20444;-88
2022/09/16 03:51:20;;;;;;;1.95;0.60;;;13.50;99.90;;;;;;5080536;28;20027;-86
2022/09/16 03:53:45;;;;;;;1.27;0.70;;;13.40;99.90;;;;;;5068482;28;20021;-88
2022/09/16 03:56:11;;;;;;;3.22;0.82;;;13.40;99.90;;;;;;5070742;28;20086;-88
2022/09/16 03:58:36;;;;;;;1.20;0.73;;;13.40;99.90;;;;;;5074943;28;20027;-89
2022/09/16 04:01:02;;;;;;;3.20;0.90;;;13.40;99.90;;;;;;5060843;28;20032;-89
2022/09/16 04:03:28;;;;;;;4.10;1.45;;;13.40;99.90;;;;;;5072527;28;20052;-89
2022/09/16 04:05:53;;;;;;;4.63;0.90;;;13.40;99.90;;;;;;5064225;28;20020;-88
2022/09/16 04:08:19;;;;;;;1.88;0.60;;;13.40;99.90;;;;;;5069696;28;20028;-90
2022/09/16 04:10:59;;;;;;;7.72;1.00;;;13.40;99.90;;;;;;5083751;28;20475;-88
2022/09/16 04:13:25;;;;;;;4.82;0.60;;;13.40;99.90;;;;;;5052097;28;20041;-89
2022/09/16 04:15:51;;;;;;;2.13;0.70;;;13.30;99.90;;;;;;5070841;28;20034;-87
2022/09/16 04:18:17;;;;;;;4.40;0.73;;;13.30;99.90;;;;;;5081374;28;20029;-87
2022/09/16 04:20:43;;;;;;;3.00;0.95;;;13.30;99.90;;;;;;5069180;28;20035;-90
2022/09/16 04:23:08;;;;;;;3.05;0.60;;;13.30;99.90;;;;;;5067181;28;20776;-88
2022/09/16 04:25:34;;;;;;;2.33;0.90;;;13.30;99.90;;;;;;5064264;28;20021;-89
2022/09/16 04:28:00;;;;;;;4.32;1.00;;;13.20;99.90;;;;;;5069774;28;20020;-90
2022/09/16 04:30:25;;;;;;;1.98;0.80;;;13.20;99.90;;;;;;5073333;28;20037;-86
2022/09/16 04:32:55;;;;;;;3.33;0.73;;;13.20;99.90;;;;;;5059166;28;20039;-91
2022/09/16 04:35:22;;;;;;;2.10;0.80;;;13.10;99.90;;;;;;5067663;28;20051;-89
2022/09/16 04:37:48;;;;;;;3.38;0.90;;;13.20;99.90;;;;;;5057860;28;20028;-88
2022/09/16 04:40:13;;;;;;;2.47;0.60;;;13.10;99.90;;;;;;5067767;28;20024;-87
2022/09/16 04:42:39;;;;;;;3.70;0.90;;;13.20;99.90;;;;;;5068622;28;20495;-88
2022/09/16 04:45:05;;;;;;;3.50;1.00;;;13.10;99.90;;;;;;5065631;28;20092;-88
2022/09/16 04:47:31;;;;;;;2.13;0.90;;;13.20;99.90;;;;;;5062792;28;20025;-88
2022/09/16 04:49:56;;;;;;;1.80;1.00;;;13.20;99.90;;;;;;5059478;28;20031;-88
2022/09/16 04:52:22;;;;;;;2.25;0.73;;;13.20;99.90;;;;;;5069708;28;20037;-88
2022/09/16 04:54:47;;;;;;;4.40;0.80;;;13.20;99.90;;;;;;5070397;28;20025;-87
2022/09/16 04:57:13;;;;;;;3.13;0.75;;;13.10;99.90;;;;;;5080194;28;20130;-89
2022/09/16 04:59:38;;;;;;;3.17;1.00;;;13.10;99.90;;;;;;5068998;28;20028;-85
2022/09/16 05:02:04;;;;;;;0.98;0.60;;;13.20;99.90;;;;;;5069575;28;20047;-85
2022/09/16 05:04:29;;;;;;;2.97;0.70;;;13.20;99.90;;;;;;5068334;28;20043;-86
2022/09/16 05:06:55;;;;;;;2.72;1.13;;;13.20;99.90;;;;;;5071350;28;20070;-85
2022/09/16 05:09:21;;;;;;;4.75;1.10;;;13.20;99.90;;;;;;5058981;28;20032;-85
2022/09/16 05:11:47;;;;;;;2.17;0.98;;;13.20;99.90;;;;;;5063098;28;20028;-85
2022/09/16 05:14:15;;;;;;;2.35;0.80;;;13.30;99.90;;;;;;5061369;28;20047;-86
2022/09/16 05:16:41;;;;;;;2.85;1.00;;;13.30;99.90;;;;;;5076877;28;20025;-84
2022/09/16 05:19:07;;;;;;;3.97;1.45;;;13.30;99.90;;;;;;5067115;28;20075;-85
2022/09/16 05:21:35;;;;;;;10.57;1.58;;;13.30;99.90;;;;;;5069485;28;20059;-85
2022/09/16 05:24:02;;;;;;;1.77;1.13;;;13.30;99.90;;;;;;5066980;28;20040;-85
2022/09/16 05:26:30;;;;;;;4.90;1.70;;;13.30;99.90;;;;;;5072580;28;20031;-86
2022/09/16 05:29:00;;;;;;;5.50;1.20;;;13.30;99.90;;;;;;5062430;28;20086;-80
2022/09/16 05:31:29;;;;;;;2.28;1.40;;;13.30;99.90;;;;;;5062780;28;20035;-78
2022/09/16 05:34:06;;;;;;;3.85;1.13;;;13.40;99.90;;;;;;5072750;28;20055;-86
2022/09/16 05:36:34;;;;;;;2.85;1.10;;;13.40;99.90;;;;;;5092785;28;20079;-84
2022/09/16 05:39:00;;;;;;;2.13;1.08;;;13.40;99.90;;;;;;5070391;28;20051;-82
2022/09/16 05:41:26;;;;;;;3.88;1.30;;;13.50;99.90;;;;;;5073237;28;20025;-83
2022/09/16 05:43:53;;;;;;;7.07;1.30;;;13.50;99.90;;;;;;5086417;28;20074;-82
2022/09/16 05:46:20;;;;;;;2.15;1.25;;;13.50;99.90;;;;;;5087643;28;20024;-85
2022/09/16 05:48:47;;;;;;;4.97;1.40;;;13.50;99.90;;;;;;5074808;28;20042;-85
2022/09/16 05:51:15;;;;;;;4.35;1.40;;;13.50;99.90;;;;;;5079202;28;20024;-84
2022/09/16 05:53:40;;;;;;;6.07;1.42;;;13.50;99.90;;;;;;5074859;28;20443;-88
2022/09/16 05:56:09;;;;;;;4.63;1.55;;;13.50;99.90;;;;;;5066344;28;20112;-86
2022/09/16 05:58:35;;;;;;;2.45;0.80;;;13.60;99.90;;;;;;5065474;28;20036;-86
2022/09/16 06:01:04;;;;;;;2.40;1.13;;;13.60;99.90;;;;;;5072082;28;20029;-86
2022/09/16 06:03:30;;;;;;;2.80;0.90;;;13.70;99.90;;;;;;5071474;28;20029;-89
2022/09/16 06:06:20;;;;;;;2.35;1.08;;;13.80;99.90;;;;;;5070992;28;20029;-86
2022/09/16 06:08:46;;;;;;;2.97;0.90;;;13.90;99.90;;;;;;5072888;28;20456;-85
2022/09/16 06:11:12;;;;;;;1.30;0.63;;;13.90;99.90;;;;;;5067955;28;20082;-84
2022/09/16 06:13:38;;;;;;;2.22;0.70;;;14.00;99.90;;;;;;5068953;28;20028;-77
2022/09/16 06:16:05;;;;;;;4.32;1.25;;;14.10;99.90;;;;;;5069904;28;20032;-79
2022/09/16 06:18:31;;;;;;;1.35;0.50;;;14.20;99.90;;;;;;5072190;28;20017;-78
2022/09/16 06:20:57;;;;;;;2.92;0.85;;;14.20;99.90;;;;;;5069479;28;20024;-77
2022/09/16 06:23:23;;;;;;;1.40;1.00;;;14.30;99.90;;;;;;5070007;28;20081;-81
2022/09/16 06:26:01;;;;;;;2.90;0.82;;;14.40;99.90;;;;;;5070516;28;20028;-83
2022/09/16 06:28:27;;;;;;;2.15;0.75;;;14.50;99.90;;;;;;5067960;28;20448;-82
2022/09/16 06:31:10;;;;;;;2.45;0.75;;;14.50;99.90;;;;;;5086767;28;20033;-82
2022/09/16 06:33:36;;;;;;;3.42;1.42;;;14.50;99.90;;;;;;5069968;28;20033;-83
2022/09/16 06:36:10;;;;;;;2.05;0.70;;;14.50;99.90;;;;;;5068575;28;20044;-83
2022/09/16 06:38:35;;;;;;;1.98;0.50;;;14.50;99.90;;;;;;5070499;28;20028;-82
2022/09/16 06:41:04;;;;;;;1.40;0.55;;;14.50;99.90;;;;;;5070443;28;20055;-82
2022/09/16 06:43:30;;;;;;;4.55;0.70;;;14.40;99.90;;;;;;5071271;28;20028;-83
2022/09/16 06:46:01;;;;;;;2.65;0.60;;;14.40;99.90;;;;;;5068884;28;20079;-81
2022/09/16 06:48:27;;;;;;;2.88;0.70;;;14.40;99.90;;;;;;5055719;28;20033;-82
2022/09/16 06:51:08;;;;;;;2.30;1.00;;;14.30;99.90;;;;;;5063373;28;20419;-82
2022/09/16 06:53:35;;;;;;;2.28;0.68;;;14.30;99.90;;;;;;5068725;28;20431;-83
2022/09/16 06:56:05;;;;;;;6.55;1.00;;;14.40;99.90;;;;;;5071067;28;20445;-82
2022/09/16 06:58:32;;;;;;;2.47;0.60;;;14.50;99.90;;;;;;5075215;28;20051;-82
2022/09/16 07:00:58;;;;;;;1.75;0.63;;;14.60;99.90;;;;;;5066055;28;20044;-82
2022/09/16 07:03:24;;;;;;;2.65;0.75;;;14.70;99.90;;;;;;5066707;28;20036;-82
2022/09/16 07:05:57;;;;;;;2.58;0.60;;;14.80;99.90;;;;;;5070650;28;20498;-82
2022/09/16 07:08:23;;;;;;;2.28;0.63;;;14.80;99.90;;;;;;5071017;28;20029;-80
2022/09/16 07:11:12;;;;;;;3.28;1.98;;;14.90;99.90;;;;;;5070544;28;20111;-82
2022/09/16 07:13:38;;;;;;;3.90;0.70;;;15.00;99.90;;;;;;5070250;28;20487;-81
2022/09/16 07:16:06;;;;;;;1.90;0.70;;;15.00;99.90;;;;;;5070527;28;20104;-81
2022/09/16 07:18:32;;;;;;;1.73;1.10;;;15.10;99.90;;;;;;5071603;28;20021;-81
2022/09/16 07:21:06;;;;;;;2.15;0.80;;;15.10;99.90;;;;;;5058383;28;20025;-82
2022/09/16 07:23:34;;;;;;;4.28;0.57;;;15.20;99.90;;;;;;5060133;28;20085;-79
2022/09/16 07:26:01;;;;;;;3.60;0.60;;;15.20;99.40;;;;;;5061002;28;20036;-84
2022/09/16 07:28:27;;;;;;;2.45;0.77;;;15.20;99.90;;;;;;5050962;28;20036;-78
2022/09/16 07:30:52;;;;;;;2.78;0.60;;;15.30;99.90;;;;;;5063739;28;20600;-78
2022/09/16 07:33:18;;;;;;;3.25;0.65;;;15.40;99.90;;;;;;5068157;28;20055;-78
2022/09/16 07:35:43;;;;;;;2.50;0.70;;;15.50;99.60;;;;;;5067937;28;20033;-80
2022/09/16 07:38:09;;;;;;;8.15;1.25;;;15.50;99.70;;;;;;5067247;28;20519;-82
2022/09/16 07:40:35;;;;;;;7.03;0.55;;;15.60;99.20;;;;;;5060361;28;20099;-78
2022/09/16 07:43:00;;;;;;;3.40;0.60;;;15.80;99.10;;;;;;5061790;28;20025;-80
2022/09/16 07:45:26;;;;;;;2.38;0.60;;;15.80;98.70;;;;;;5068752;28;20044;-79
2022/09/16 07:47:52;;;;;;;1.60;0.50;;;15.80;99.10;;;;;;5068956;28;20034;-80
2022/09/16 07:50:17;;;;;;;1.58;0.60;;;15.80;98.90;;;;;;5068867;28;20025;-81
2022/09/16 07:52:43;;;;;;;0.75;0.40;;;15.70;98.70;;;;;;5063283;28;20028;-79
2022/09/16 07:55:09;;;;;;;3.28;1.10;;;15.80;98.70;;;;;;5069782;28;20427;-81
2022/09/16 07:57:34;;;;;;;2.58;0.77;;;15.80;98.80;;;;;;5068221;28;20028;-79
2022/09/16 08:00:00;;;;;;;5.78;0.80;;;15.80;98.90;;;;;;5070102;28;20028;-80
2022/09/16 08:02:25;;;;;;;4.25;0.85;;;15.90;98.90;;;;;;5069525;28;20123;-80
2022/09/16 08:04:51;;;;;;;2.45;0.82;;;15.90;98.80;;;;;;5067903;28;20076;-81
2022/09/16 08:07:17;;;;;;;1.02;0.60;;;15.90;98.40;;;;;;5068590;28;20028;-79
2022/09/16 08:09:42;;;;;;;2.40;0.88;;;15.90;98.50;;;;;;5064275;28;20505;-80
2022/09/16 08:12:09;;;;;;;3.33;0.70;;;15.90;98.50;;;;;;5074017;28;20082;-79
2022/09/16 08:14:35;;;;;;;0.88;0.55;;;16.00;98.90;;;;;;5067978;28;20567;-78
2022/09/16 08:17:01;;;;;;;2.10;0.60;;;15.90;99.00;;;;;;5068625;28;20025;-80
2022/09/16 08:19:27;;;;;;;1.50;0.50;;;15.90;98.90;;;;;;5068942;28;20036;-79
2022/09/16 08:21:52;;;;;;;2.08;0.70;;;15.90;98.60;;;;;;5069092;28;20032;-79
2022/09/16 08:24:18;;;;;;;1.13;0.57;;;16.00;98.80;;;;;;5067889;28;20070;-79
2022/09/16 08:26:43;;;;;;;2.78;0.65;;;16.00;97.80;;;;;;5063259;28;20051;-80
2022/09/16 08:29:09;;;;;;;3.28;0.65;;;15.90;97.70;;;;;;5068259;28;20058;-79
2022/09/16 08:31:35;;;;;;;2.10;0.50;;;15.90;98.30;;;;;;5066506;28;20094;-79
2022/09/16 08:34:00;;;;;;;3.03;0.88;;;15.80;97.90;;;;;;5069181;28;20043;-82
2022/09/16 08:36:25;;;;;;;1.75;0.57;;;15.80;98.20;;;;;;5075272;28;20027;-79
2022/09/16 08:38:54;;;;;;;1.45;0.70;;;15.80;98.20;;;;;;5063981;28;20033;-81
2022/09/16 08:41:40;;;;;;;1.25;0.65;;;15.90;98.00;;;;;;5067757;28;20059;-81
2022/09/16 08:44:30;;;;;;;1.92;1.13;;;16.00;97.80;;;;;;5050763;28;20082;-81
2022/09/16 08:47:02;;;;;;;3.33;0.65;;;16.10;97.40;;;;;;5047176;28;20033;-82
2022/09/16 08:49:43;;;;;;;3.80;0.80;;;16.20;97.50;;;;;;5060573;28;20060;-80
2022/09/16 08:52:24;;;;;;;1.40;0.60;;;16.40;97.00;;;;;;5068237;28;20041;-82
2022/09/16 08:54:57;;;;;;;1.88;0.40;;;16.50;97.70;;;;;;5086704;28;20105;-82
2022/09/16 08:57:25;;;;;;;;;;;16.50;96.90;;;;;;5067819;28;20032;-83
2022/09/16 08:59:56;;;;;;;1.15;0.55;;;16.50;97.20;;;;;;5068934;28;19905;-81
2022/09/16 09:02:57;;;;;;;3.05;0.50;;;16.50;97.10;;;;;;5069726;28;20037;-82
2022/09/16 09:05:34;;;;;;;3.28;0.60;;;16.50;96.90;;;;;;5030867;28;20051;-81
2022/09/16 09:08:08;;;;;;;4.20;0.80;;;16.50;96.70;;;;;;5070324;28;20008;-84
2022/09/16 09:10:48;;;;;;;3.70;0.65;;;16.50;96.10;;;;;;5067875;28;20017;-85
2022/09/16 09:13:37;;;;;;;3.30;0.50;;;16.60;95.90;;;;;;5073254;28;20052;-83
2022/09/16 09:16:26;;;;;;;1.60;0.63;;;16.60;96.10;;;;;;5088352;28;20059;-84
2022/09/16 09:19:25;;;;;;;3.03;0.60;;;16.60;95.90;;;;;;5074639;28;20035;-82
2022/09/16 09:22:12;;;;;;;1.67;0.57;;;16.60;96.80;;;;;;5073721;28;20021;-82
2022/09/16 09:24:38;;;;;;;1.80;0.40;;;16.60;96.10;;;;;;5068221;28;20095;-81
2022/09/16 09:27:22;;;;;;;2.20;0.82;;;16.50;96.10;;;;;;5066444;28;20028;-83
2022/09/16 09:30:10;;;;;;;1.75;0.52;;;16.50;95.70;;;;;;5058082;28;20037;-83
2022/09/16 09:32:53;;;;;;;2.38;0.60;;;16.50;96.40;;;;;;5064985;28;20105;-84
2022/09/16 09:35:48;;;;;;;1.45;0.50;;;16.20;98.10;;;;;;5059996;28;20033;-84
2022/09/16 09:38:35;;;;;;;0.85;0.40;;;15.90;98.60;;;;;;5055904;28;20085;-84
2022/09/16 09:41:33;;;;;;;0.85;0.40;;;15.60;99.50;;;;;;5067223;28;20528;-84
2022/09/16 09:44:24;;;;;;;1.75;0.40;;;15.60;99.90;;;;;;5068670;28;20044;-85
2022/09/16 09:46:54;;;;;;;1.60;0.52;;;15.50;99.90;;;;;;5068235;28;20060;-82
2022/09/16 09:49:31;;;;;;;2.17;0.60;;;15.50;99.90;;;;;;5068404;28;20038;-84
2022/09/16 09:52:22;;;;;;;1.15;0.50;;;15.60;99.90;;;;;;5060368;28;20027;-83
2022/09/16 09:54:49;;;;;;;1.30;0.50;;;15.70;99.90;;;;;;5066061;28;20032;-84
2022/09/16 09:57:34;;;;;;;0.63;0.43;;;15.70;99.40;;;;;;5050608;28;20091;-85
2022/09/16 10:00:20;;;;;;;2.85;0.40;;;15.70;99.00;;;;;;5060599;28;20029;-84
2022/09/16 10:02:46;;;;;;;4.30;0.60;;;15.80;99.20;;;;;;5057589;28;20119;-83
2022/09/16 10:05:27;;;;;;;2.78;0.38;;;15.90;98.60;;;;;;5052796;28;20498;-83
2022/09/16 10:07:57;;;;;;;1.23;0.60;;;16.10;99.60;;;;;;5066114;28;20040;-83
2022/09/16 10:10:25;;;;;;;3.08;0.43;;;16.30;98.00;;;;;;5064876;28;20028;-84
2022/09/16 10:12:50;;;;;;;0.93;0.30;;;16.40;98.50;;;;;;5072874;28;20754;-84
2022/09/16 10:15:28;;;;;;;0.95;0.47;;;16.50;97.20;;;;;;5060196;28;20048;-85
2022/09/16 10:17:56;;;;;;;1.50;0.40;;;16.50;97.50;;;;;;5067222;28;20558;-83
2022/09/16 10:20:31;;;;;;;0.52;0.30;;;16.50;96.90;;;;;;5067882;28;20048;-83
2022/09/16 10:23:05;;;;;;;1.63;0.40;;;16.60;96.90;;;;;;5066637;28;20037;-84
2022/09/16 10:25:32;;;;;;;1.40;0.50;;;16.80;96.40;;;;;;5065954;28;20031;-84
2022/09/16 10:28:16;;;;;;;1.00;0.40;;;17.00;96.50;;;;;;5070704;28;20380;-84
2022/09/16 10:30:45;;;;;;;0.75;0.35;;;17.00;96.20;;;;;;5066478;28;20439;-83
2022/09/16 10:33:16;;;;;;;1.60;0.45;;;17.20;96.20;;;;;;5067569;28;20032;-83
2022/09/16 10:35:59;;;;;;;1.70;0.50;;;17.30;96.40;;;;;;5068094;28;20380;-83
2022/09/16 10:38:45;;;;;;;;;;;17.50;94.90;;;;;;5068748;28;20457;-83
2022/09/16 10:41:21;;;;;;;1.15;0.40;;;17.60;94.70;;;;;;5065388;28;19905;-85
2022/09/16 10:43:59;;;;;;;4.22;1.40;;;17.70;94.40;;;;;;5060383;28;20032;-83
2022/09/16 10:46:26;;;;;;;2.47;0.40;;;17.70;93.90;;;;;;5060049;28;20033;-84
2022/09/16 10:48:58;;;;;;;1.08;0.30;;;17.90;95.30;;;;;;5069399;28;20027;-85
2022/09/16 10:51:26;;;;;;;1.42;0.50;;;18.10;95.00;;;;;;5066758;28;20032;-84
2022/09/16 10:54:00;;;;;;;0.32;0.32;;;18.40;94.50;;;;;;5067198;28;20477;-82
2022/09/16 10:56:32;;;;;;;2.05;0.40;;;18.70;93.70;;;;;;5065862;28;20028;-86
2022/09/16 10:59:13;;;;;;;1.92;0.40;;;18.90;92.10;;;;;;5058868;28;20028;-87
2022/09/16 11:01:48;;;;;;;1.67;0.43;;;18.90;91.70;;;;;;5068114;28;20059;-84
2022/09/16 11:04:45;;;;;;;0.65;0.38;;;18.80;90.90;;;;;;5065079;28;20059;-85
2022/09/16 11:07:36;;;;;;;1.30;0.25;;;18.60;92.20;;;;;;5065163;28;20036;-87
2022/09/16 11:10:12;;;;;;;1.13;0.40;;;18.50;91.70;;;;;;5056057;28;20024;-84
2022/09/16 11:13:16;;;;;;;1.55;0.70;;;18.60;91.70;;;;;;5067887;28;20107;-84
2022/09/16 11:16:23;;;;;;;0.75;0.28;;;18.80;91.40;;;;;;5063837;28;20056;-83
2022/09/16 11:18:56;;;;;;;0.40;0.30;;;18.80;91.30;;;;;;5057084;28;20129;-84
2022/09/16 11:21:29;;;;;;;;;;;18.80;90.20;;;;;;5065682;28;20067;-84
2022/09/16 11:24:07;;;;;;;0.65;0.40;;;18.90;90.80;;;;;;5076620;28;19965;-83
2022/09/16 11:26:44;;;;;;;0.80;0.40;;;18.80;90.90;;;;;;5073502;28;20393;-82
2022/09/16 11:29:26;;;;;;;1.27;0.30;;;18.80;89.90;;;;;;5074250;28;20031;-83
2022/09/16 11:32:20;;;;;;;4.13;1.27;;;18.90;90.30;;;;;;5077756;28;20504;-84
2022/09/16 11:35:36;;;;;;;1.65;0.47;;;19.00;90.10;;;;;;5018745;28;20040;-84
2022/09/16 11:38:13;;;;;;;1.75;0.30;;;19.00;90.50;;;;;;5019669;28;20025;-85
2022/09/16 11:40:58;;;;;;;3.28;0.95;;;19.20;91.20;;;;;;5020248;28;20053;-85
2022/09/16 11:43:39;;;;;;;1.65;0.30;;;19.40;88.80;;;;;;5053823;28;20044;-85
2022/09/16 11:46:26;;;;;;;0.40;0.30;;;19.50;90.20;;;;;;5069672;28;20021;-87
2022/09/16 11:48:54;;;;;;;0.32;0.30;;;19.50;88.50;;;;;;5075374;28;20029;-86
2022/09/16 11:51:23;;;;;;;0.50;0.30;;;19.40;87.60;;;;;;5064656;28;20017;-85
2022/09/16 11:54:07;;;;;;;9.77;1.05;;;19.20;87.30;;;;;;5069791;28;20047;-87
2022/09/16 11:56:42;;;;;;;0.70;0.50;;;19.10;89.60;;;;;;5069551;28;20116;-87
2022/09/16 11:59:14;;;;;;;0.98;0.30;;;18.90;90.20;;;;;;5067066;28;20028;-85
2022/09/16 12:01:44;;;;;;;1.38;0.47;;;18.80;90.30;;;;;;5072742;28;20024;-84
2022/09/16 12:04:28;;;;;;;2.58;0.30;;;18.70;90.10;;;;;;5058665;28;20064;-86
2022/09/16 12:07:14;;;;;;;0.45;0.30;;;18.70;88.50;;;;;;5065759;28;20036;-85
2022/09/16 12:09:43;;;;;;;0.73;0.38;;;18.70;90.00;;;;;;5058689;28;20078;-86
2022/09/16 12:12:20;;;;;;;1.20;0.57;;;18.60;90.00;;;;;;5078633;28;20031;-86
2022/09/16 12:14:53;;;;;;;1.55;0.40;;;18.60;90.10;;;;;;5083890;28;20021;-86
2022/09/16 12:17:23;;;;;;;1.63;0.60;;;18.50;90.50;;;;;;5078746;28;20042;-85
2022/09/16 12:19:51;;;;;;;4.10;0.55;;;18.40;90.40;;;;;;5081500;28;20028;-85
2022/09/16 12:22:27;;;;;;;1.35;0.40;;;18.30;90.00;;;;;;5081274;28;20062;-84
2022/09/16 12:25:01;;;;;;;1.92;0.40;;;18.00;90.30;;;;;;5077205;28;20033;-86
2022/09/16 12:27:59;;;;;;;0.40;0.30;;;17.80;90.20;;;;;;5079997;28;20032;-87
2022/09/16 12:30:37;;;;;;;0.82;0.82;;;17.60;90.90;;;;;;5080142;28;20066;-85
2022/09/16 12:33:17;;;;;;;1.73;0.30;;;17.70;90.50;;;;;;5067452;28;20055;-85
2022/09/16 12:36:15;;;;;;;0.30;0.30;;;17.60;88.90;;;;;;5062565;28;20024;-86
2022/09/16 12:38:40;;;;;;;0.50;0.30;;;17.80;90.20;;;;;;5068548;28;20021;-86
2022/09/16 12:41:34;;;;;;;0.75;0.25;;;17.90;87.70;;;;;;5071982;28;20052;-87
2022/09/16 12:44:24;;;;;;;0.35;0.30;;;18.00;90.20;;;;;;5089589;28;20041;-87
2022/09/16 12:47:10;;;;;;;0.30;0.25;;;18.20;89.70;;;;;;5080376;28;20457;-86
2022/09/16 12:49:52;;;;;;;1.55;0.30;;;18.40;89.70;;;;;;5094757;28;20013;-86
2022/09/16 12:52:37;;;;;;;0.57;0.32;;;18.50;90.10;;;;;;5094230;28;20020;-86
2022/09/16 12:55:48;;;;;;;2.25;0.30;;;18.70;90.20;;;;;;5080583;28;20043;-87
2022/09/16 12:59:03;;;;;;;2.00;0.73;;;18.90;88.10;;;;;;5080352;28;20035;-87
2022/09/16 13:01:41;;;;;;;1.00;0.40;;;19.10;88.30;;;;;;5036143;28;20545;-85
2022/09/16 13:04:18;;;;;;;1.73;0.40;;;19.20;86.40;;;;;;5071417;28;20028;-85
2022/09/16 13:06:50;;;;;;;1.35;0.30;;;19.20;86.40;;;;;;5069654;28;20028;-86
2022/09/16 13:09:27;;;;;;;0.60;0.30;;;19.10;88.70;;;;;;5069331;28;20415;-87
2022/09/16 13:12:05;;;;;;;1.20;0.22;;;19.20;88.40;;;;;;5070622;28;20316;-86
2022/09/16 13:14:45;;;;;;;2.25;0.30;;;19.30;86.20;;;;;;5069037;28;20017;-86
2022/09/16 13:17:11;;;;;;;0.60;0.30;;;19.40;87.10;;;;;;5068924;28;20043;-88
2022/09/16 13:19:44;;;;;;;0.50;0.30;;;19.60;86.90;;;;;;5069282;28;20036;-87
2022/09/16 13:22:34;;;;;;;3.83;0.38;;;19.60;87.60;;;;;;5070566;28;20024;-86